Otisville, New York
Current Conditions -  °F | °C
As of 7:54 AM on Sunday 23 Nov 2014 (Local Time) from KMGJ Reporting Station
Broken Clouds Broken Clouds  
Wind Chill: 35°   Ceiling: 9500
Heat Index: 41°   Visibility: 10mi
Dew Point: 21°   Wind: 9mph
Humidity: 45%   Direction: 230°SW
Pressure: 30.17"   Gusts: NA
Location:  41.47°N, 74.54°W
Report Text: KMGJ 231254Z AUTO 23008KT 10SM BKN095 05/M06 A3017 RMK AO2 SLP218 T00501061 TSNO
Loading
Personal Weather Stations






























Interactive Weather Map New forecast layout! Learn more

10-Day Weather Forecast

Advertisements
Track Severe Weather on mobile